createdAt,value
2022-11-04T00:02:04.331Z,100068.91
2022-11-04T00:04:30.825Z,100072.75
2022-11-04T00:06:57.770Z,100072.03
2022-11-04T00:09:27.390Z,100083.41
2022-11-04T00:12:13.271Z,100089.16
2022-11-04T00:14:39.851Z,100089.16
2022-11-04T00:17:24.447Z,100088.44
2022-11-04T00:20:11.675Z,100087.97
2022-11-04T00:22:58.523Z,100094.22
2022-11-04T00:25:44.049Z,100094.66
2022-11-04T00:28:32.093Z,100092.88
2022-11-04T00:31:20.052Z,100097.44
2022-11-04T00:33:48.744Z,100101.00
2022-11-04T00:36:15.780Z,100109.88
2022-11-04T00:38:42.313Z,100119.34
2022-11-04T00:41:25.970Z,100114.91
2022-11-04T00:43:59.801Z,100124.81
2022-11-04T00:46:27.607Z,100123.63
2022-11-04T00:48:54.093Z,100128.66
2022-11-04T00:51:21.486Z,100123.06
2022-11-04T00:53:48.662Z,100131.78
2022-11-04T00:56:15.118Z,100127.63
2022-11-04T00:58:41.532Z,100132.66
2022-11-04T01:01:09.725Z,100136.53
2022-11-04T01:03:36.463Z,100142.28
2022-11-04T01:06:03.134Z,100135.97
2022-11-04T01:08:29.747Z,100141.28
2022-11-04T01:10:56.129Z,100149.25
2022-11-04T01:13:22.514Z,100155.31
2022-11-04T01:15:48.893Z,100161.38
2022-11-04T01:18:15.272Z,100165.22
2022-11-04T01:20:41.667Z,100168.31
2022-11-04T01:23:08.045Z,100175.13
2022-11-04T01:25:34.500Z,100179.69
2022-11-04T01:28:00.887Z,100186.19
2022-11-04T01:30:27.262Z,100190.34
2022-11-04T01:32:53.817Z,100185.00
2022-11-04T01:35:20.192Z,100188.28
2022-11-04T01:37:46.616Z,100193.91
2022-11-04T01:40:13.010Z,100196.25
2022-11-04T01:42:39.418Z,100204.09
2022-11-04T01:45:14.307Z,100209.56
2022-11-04T01:47:43.938Z,100211.66
2022-11-04T01:50:20.822Z,100213.41
2022-11-04T01:53:16.794Z,100209.91
2022-11-04T01:55:49.334Z,100211.97
2022-11-04T01:58:18.316Z,100206.06
2022-11-04T02:00:44.777Z,100213.75
2022-11-04T02:03:20.076Z,100225.09
2022-11-04T02:05:48.173Z,100234.25
2022-11-04T02:08:17.788Z,100224.38
2022-11-04T02:10:50.710Z,100232.34
2022-11-04T02:13:17.191Z,100234.56
2022-11-04T02:16:18.339Z,100241.19
2022-11-04T02:18:59.508Z,100238.97
2022-11-04T02:22:04.016Z,100243.69
2022-11-04T02:24:48.589Z,100246.06
2022-11-04T02:27:43.417Z,100253.13
2022-11-04T02:30:12.175Z,100257.84
2022-11-04T02:32:48.055Z,100261.38
2022-11-04T02:35:17.443Z,100266.41
2022-11-04T02:38:20.959Z,100262.00
2022-11-04T02:41:25.409Z,100273.78
2022-11-04T02:44:16.955Z,100275.72
2022-11-04T02:46:51.944Z,100279.84
2022-11-04T02:49:28.562Z,100289.56
2022-11-04T02:52:11.762Z,100294.13
2022-11-04T02:54:50.127Z,100301.09
2022-11-04T02:57:25.593Z,100296.97
2022-11-04T03:00:21.142Z,100299.19
2022-11-04T03:02:59.873Z,100296.53
2022-11-04T03:05:30.995Z,100303.31
2022-11-04T03:08:14.535Z,100303.75
2022-11-04T03:10:48.680Z,100298.44
2022-11-04T03:13:20.818Z,100308.75
2022-11-04T03:16:17.713Z,100317.47
2022-11-04T03:19:02.206Z,100318.78
2022-11-04T03:21:33.268Z,100314.03
2022-11-04T03:24:01.059Z,100320.09
2022-11-04T03:26:41.590Z,100322.88
2022-11-04T03:29:28.894Z,100330.09
2022-11-04T03:32:07.094Z,100333.78
2022-11-04T03:34:33.558Z,100344.81
2022-11-04T03:37:00.466Z,100343.47
2022-11-04T03:39:27.086Z,100343.47
2022-11-04T03:41:57.760Z,100338.16
2022-11-04T03:44:24.916Z,100343.16
2022-11-04T03:46:54.346Z,100352.00
2022-11-04T03:49:22.478Z,100359.09
2022-11-04T03:51:50.835Z,100358.91
2022-11-04T03:54:18.253Z,100357.56
2022-11-04T03:56:59.912Z,100358.84
2022-11-04T03:59:48.706Z,100353.56
2022-11-04T04:02:30.735Z,100353.38
2022-11-04T04:05:01.598Z,100351.28
2022-11-04T04:07:48.321Z,100357.88
2022-11-04T04:10:39.031Z,100360.34
2022-11-04T04:13:44.052Z,100364.31
2022-11-04T04:16:22.103Z,100364.13
2022-11-04T04:18:58.587Z,100367.19
2022-11-04T04:21:34.373Z,100363.78
2022-11-04T04:24:23.432Z,100374.00
2022-11-04T04:27:10.779Z,100378.88
2022-11-04T04:29:38.287Z,100374.31
2022-11-04T04:32:05.901Z,100370.06
2022-11-04T04:34:33.581Z,100375.38
2022-11-04T04:37:11.958Z,100379.19
2022-11-04T04:40:04.796Z,100382.28
2022-11-04T04:42:51.862Z,100390.22
2022-11-04T04:45:32.410Z,100392.13
2022-11-04T04:47:59.447Z,100397.53
2022-11-04T04:50:33.786Z,100395.44
2022-11-04T04:53:00.914Z,100400.84
2022-11-04T04:55:27.318Z,100405.84
2022-11-04T04:57:53.752Z,100404.06
2022-11-04T05:00:21.092Z,100408.72
2022-11-04T05:02:48.870Z,100407.25
2022-11-04T05:07:42.511Z,100406.31
2022-11-04T05:10:10.841Z,100412.47
2022-11-04T05:12:57.610Z,100413.31
2022-11-04T05:15:24.874Z,100421.44
2022-11-04T05:17:55.640Z,100416.97
2022-11-04T05:20:23.031Z,100413.69
2022-11-04T05:22:49.539Z,100416.34
2022-11-04T05:25:16.122Z,100411.59
2022-11-04T05:27:42.679Z,100417.75
2022-11-04T05:30:09.468Z,100419.44
2022-11-04T05:32:35.935Z,100424.84
2022-11-04T05:35:02.595Z,100431.44
2022-11-04T05:37:28.993Z,100434.50
2022-11-04T05:39:55.478Z,100434.19
2022-11-04T05:42:21.964Z,100442.13
2022-11-04T05:44:48.342Z,100434.75
2022-11-04T05:47:14.873Z,100438.56
2022-11-04T05:49:41.261Z,100437.50
2022-11-04T05:52:07.671Z,100439.09
2022-11-04T05:54:34.104Z,100445.25
2022-11-04T05:57:00.477Z,100441.94
2022-11-04T05:59:26.926Z,100457.53
2022-11-04T06:01:53.413Z,100458.69
2022-11-04T06:04:19.937Z,100469.38
2022-11-04T06:06:46.425Z,100475.41
2022-11-04T06:09:12.841Z,100475.84
2022-11-04T06:11:39.415Z,100480.81
2022-11-04T06:14:06.146Z,100481.25
2022-11-04T06:16:32.518Z,100482.19
2022-11-04T06:19:01.739Z,100493.19
2022-11-04T06:21:33.914Z,100491.38
2022-11-04T06:24:00.744Z,100499.13
2022-11-04T06:26:28.817Z,100500.41
2022-11-04T06:28:55.634Z,100493.28
2022-11-04T06:31:22.332Z,100500.16
2022-11-04T06:33:48.780Z,100499.84
2022-11-04T06:36:16.392Z,100497.63
2022-11-04T06:38:43.098Z,100502.59
2022-11-04T06:41:15.252Z,100507.56
2022-11-04T06:43:41.883Z,100509.47
2022-11-04T06:46:28.325Z,100506.06
2022-11-04T06:48:56.678Z,100509.78
2022-11-04T06:51:24.401Z,100510.22
2022-11-04T06:53:50.960Z,100512.84
2022-11-04T06:56:17.743Z,100514.75
2022-11-04T06:58:48.721Z,100517.06
2022-11-04T07:01:21.558Z,100514.84
2022-11-04T07:03:50.372Z,100519.81
2022-11-04T07:06:17.110Z,100522.47
2022-11-04T07:08:43.658Z,100525.44
2022-11-04T07:11:10.048Z,100530.00
2022-11-04T07:13:36.510Z,100525.44
2022-11-04T07:16:07.299Z,100524.59
2022-11-04T07:18:33.815Z,100516.97
2022-11-04T07:21:02.496Z,100523.44
2022-11-04T07:23:31.031Z,100532.44
2022-11-04T07:26:06.429Z,100536.16
2022-11-04T07:28:33.734Z,100530.78
2022-11-04T07:31:02.151Z,100538.63
2022-11-04T07:33:28.641Z,100535.56
2022-11-04T07:35:58.069Z,100543.72
2022-11-04T07:38:25.098Z,100551.13
2022-11-04T07:40:51.494Z,100550.59
2022-11-04T07:43:17.887Z,100557.28
2022-11-04T07:45:45.488Z,100560.69
2022-11-04T07:48:12.348Z,100551.56
2022-11-04T07:50:40.502Z,100553.72
2022-11-04T07:53:07.824Z,100552.78
2022-11-04T07:55:42.898Z,100558.28
2022-11-04T07:58:10.102Z,100559.25
2022-11-04T08:00:36.542Z,100561.78
2022-11-04T08:03:03.125Z,100563.91
2022-11-04T08:05:29.577Z,100575.47
2022-11-04T08:07:57.592Z,100575.56
2022-11-04T08:10:24.043Z,100592.31
2022-11-04T08:12:51.530Z,100590.06
2022-11-04T08:15:18.404Z,100586.59
2022-11-04T08:17:44.852Z,100598.25
2022-11-04T08:20:12.113Z,100600.47
2022-11-04T08:22:39.030Z,100602.38
2022-11-04T08:25:06.186Z,100596.03
2022-11-04T08:27:34.118Z,100605.44
2022-11-04T08:30:03.582Z,100611.50
2022-11-04T08:32:30.347Z,100610.75
2022-11-04T08:34:56.757Z,100618.69
2022-11-04T08:37:23.141Z,100619.88
2022-11-04T08:39:49.562Z,100619.88
2022-11-04T08:42:16.014Z,100625.91
2022-11-04T08:44:42.835Z,100640.63
2022-11-04T08:47:09.251Z,100640.97
2022-11-04T08:49:39.641Z,100641.94
2022-11-04T08:52:06.499Z,100644.72
2022-11-04T08:54:33.056Z,100647.56
2022-11-04T08:56:59.462Z,100654.69
2022-11-04T08:59:25.970Z,100661.34
2022-11-04T09:01:52.702Z,100656.69
2022-11-04T09:04:19.885Z,100656.47
2022-11-04T09:06:46.816Z,100658.81
2022-11-04T09:09:15.783Z,100656.28
2022-11-04T09:11:43.858Z,100665.50
2022-11-04T09:14:11.155Z,100660.75
2022-11-04T09:16:38.924Z,100671.44
2022-11-04T09:19:05.407Z,100670.06
2022-11-04T09:21:31.829Z,100679.28
2022-11-04T09:23:58.460Z,100680.84
2022-11-04T09:26:25.570Z,100692.50
2022-11-04T09:28:56.021Z,100692.91
2022-11-04T09:31:23.278Z,100697.91
2022-11-04T09:33:50.398Z,100707.03
2022-11-04T09:36:17.410Z,100699.81
2022-11-04T09:38:44.855Z,100714.34
2022-11-04T09:41:20.341Z,100710.16
2022-11-04T09:44:01.013Z,100710.78
2022-11-04T09:46:30.957Z,100712.56
2022-11-04T09:48:58.486Z,100709.69
2022-11-04T09:51:52.567Z,100714.81
2022-11-04T09:54:22.585Z,100721.47
2022-11-04T09:56:51.293Z,100730.69
2022-11-04T09:59:23.996Z,100723.28
2022-11-04T10:02:29.418Z,100727.84
2022-11-04T10:05:18.510Z,100728.47
2022-11-04T10:08:25.747Z,100725.81
2022-11-04T10:11:10.781Z,100738.06
2022-11-04T10:14:04.219Z,100735.41
2022-11-04T10:16:48.564Z,100742.50
2022-11-04T10:19:29.922Z,100758.47
2022-11-04T10:22:14.681Z,100761.44
2022-11-04T10:25:01.710Z,100758.03
2022-11-04T10:27:33.337Z,100762.22
2022-11-04T10:30:08.288Z,100774.06
2022-11-04T10:32:47.750Z,100767.16
2022-11-04T10:35:35.172Z,100775.75
2022-11-04T10:38:25.071Z,100771.56
2022-11-04T10:40:53.875Z,100771.59
2022-11-04T10:43:41.205Z,100771.31
2022-11-04T10:46:37.138Z,100776.78
2022-11-04T10:49:28.955Z,100777.25
2022-11-04T10:51:56.770Z,100775.94
2022-11-04T10:54:26.288Z,100778.91
2022-11-04T10:56:55.084Z,100778.09
2022-11-04T10:59:30.246Z,100786.97
2022-11-04T11:01:59.559Z,100792.31
2022-11-04T11:04:33.394Z,100805.53
2022-11-04T11:07:03.396Z,100812.75
2022-11-04T11:09:33.532Z,100812.13
2022-11-04T11:12:29.453Z,100822.03
2022-11-04T11:14:53.244Z,100828.28
2022-11-04T11:17:34.867Z,100830.84
2022-11-04T11:20:18.107Z,100821.56
2022-11-04T11:22:46.302Z,100824.38
2022-11-04T11:25:20.818Z,100823.22
2022-11-04T11:27:53.530Z,100822.34
2022-11-04T11:30:26.374Z,100820.88
2022-11-04T11:32:56.243Z,100815.09
2022-11-04T11:35:27.549Z,100821.03
2022-11-04T11:37:54.579Z,100813.47
2022-11-04T11:40:35.655Z,100811.44
2022-11-04T11:43:02.408Z,100818.41
2022-11-04T11:45:30.564Z,100817.34
2022-11-04T11:47:57.398Z,100819.88
2022-11-04T11:50:31.322Z,100820.31
2022-11-04T11:53:14.850Z,100825.50
2022-11-04T11:55:47.841Z,100837.81
2022-11-04T12:01:46.828Z,100840.44
2022-11-04T12:10:44.634Z,100837.31
2022-11-04T12:13:26.164Z,100848.28
2022-11-04T12:15:59.915Z,100846.66
2022-11-04T12:18:35.321Z,100848.72
2022-11-04T12:21:10.772Z,100854.22
2022-11-04T12:24:01.305Z,100843.97
2022-11-04T12:26:45.555Z,100856.13
2022-11-04T12:29:50.827Z,100857.91
2022-11-04T12:32:44.366Z,100860.88
2022-11-04T12:35:20.547Z,100861.31
2022-11-04T12:38:01.965Z,100866.50
2022-11-04T12:40:34.001Z,100862.38
2022-11-04T12:43:13.326Z,100874.22
2022-11-04T12:45:56.614Z,100876.75
2022-11-04T12:48:32.844Z,100888.59
2022-11-04T12:51:24.786Z,100895.59
2022-11-04T12:54:06.505Z,100891.88
2022-11-04T12:56:38.125Z,100897.38
2022-11-04T12:59:31.579Z,100892.03
2022-11-04T13:02:25.036Z,100895.72
2022-11-04T13:05:21.195Z,100889.50
2022-11-04T13:07:57.657Z,100902.41
2022-11-04T13:10:33.974Z,100906.56
2022-11-04T13:13:02.397Z,100905.06
2022-11-04T13:15:33.604Z,100900.47
2022-11-04T13:18:05.640Z,100910.41
2022-11-04T13:20:43.382Z,100917.69
2022-11-04T13:23:17.896Z,100915.91
2022-11-04T13:25:46.213Z,100916.78
2022-11-04T13:28:15.401Z,100918.88
2022-11-04T13:31:05.851Z,100924.50
2022-11-04T13:34:06.966Z,100929.09
2022-11-04T13:36:51.369Z,100941.25
2022-11-04T13:39:20.391Z,100948.97
2022-11-04T13:42:39.633Z,100957.69
2022-11-04T13:45:18.875Z,100966.88
2022-11-04T13:47:53.260Z,100978.06
2022-11-04T13:50:33.739Z,100975.53
2022-11-04T13:53:00.183Z,100973.41
2022-11-04T13:55:26.748Z,100977.97
2022-11-04T13:58:01.312Z,100978.53
2022-11-04T14:00:33.423Z,100983.44
2022-11-04T14:03:20.861Z,100988.75
2022-11-04T14:06:08.348Z,100990.38
2022-11-04T14:08:35.257Z,100993.03
2022-11-04T14:11:06.078Z,100993.78
2022-11-04T14:13:37.660Z,100990.69
2022-11-04T14:16:10.519Z,100984.00
2022-11-04T14:18:46.054Z,100979.97
2022-11-04T14:21:20.106Z,100987.22
2022-11-04T14:23:52.008Z,100986.03
2022-11-04T14:26:42.702Z,100991.97
2022-11-04T14:29:19.609Z,100994.63
2022-11-04T14:31:50.141Z,101004.53
2022-11-04T14:34:28.520Z,101002.47
2022-11-04T14:37:06.239Z,101011.22
2022-11-04T14:39:40.315Z,101019.63
2022-11-04T14:42:06.942Z,101018.31
2022-11-04T14:44:42.011Z,101026.44
2022-11-04T14:47:29.717Z,101029.44
2022-11-04T14:49:58.978Z,101036.81
2022-11-04T14:52:29.538Z,101040.50
2022-11-04T14:55:01.875Z,101039.00
2022-11-04T14:57:30.366Z,101040.63
2022-11-04T14:59:56.834Z,101041.03
2022-11-04T15:02:26.019Z,101040.75
2022-11-04T15:04:58.634Z,101049.59
2022-11-04T15:07:45.299Z,101057.28
2022-11-04T15:10:22.430Z,101059.00
2022-11-04T15:12:51.990Z,101068.41
2022-11-04T15:15:56.020Z,101068.84
2022-11-04T15:18:28.513Z,101069.28
2022-11-04T15:21:00.415Z,101074.72
2022-11-04T15:23:50.779Z,101081.69
2022-11-04T15:26:30.384Z,101097.47
2022-11-04T15:28:59.899Z,101099.91
2022-11-04T15:31:28.439Z,101098.13
2022-11-04T15:33:57.663Z,101093.75
2022-11-04T15:36:28.607Z,101099.94
2022-11-04T15:39:20.575Z,101095.91
2022-11-04T15:42:08.089Z,101095.72
2022-11-04T15:44:37.474Z,101098.72
2022-11-04T15:47:22.535Z,101097.78
2022-11-04T15:49:53.516Z,101105.97
2022-11-04T15:52:22.988Z,101115.31
2022-11-04T15:55:00.085Z,101110.09
2022-11-04T15:57:39.804Z,101113.41
2022-11-04T16:00:24.861Z,101114.06
2022-11-04T16:02:54.048Z,101113.41
2022-11-04T16:05:23.582Z,101126.81
2022-11-04T16:07:52.125Z,101129.13
2022-11-04T16:10:34.525Z,101130.41
2022-11-04T16:13:04.258Z,101135.81
2022-11-04T16:15:41.266Z,101144.00
2022-11-04T16:18:23.110Z,101143.56
2022-11-04T16:20:52.919Z,101135.78
2022-11-04T16:23:22.591Z,101138.53
2022-11-04T16:26:01.474Z,101146.59
2022-11-04T16:28:30.432Z,101139.47
2022-11-04T16:31:05.627Z,101143.06
2022-11-04T16:33:32.066Z,101146.31
2022-11-04T16:35:58.541Z,101155.25
2022-11-04T16:38:24.918Z,101159.16
2022-11-04T16:40:51.430Z,101162.31
2022-11-04T16:43:21.540Z,101164.31
2022-11-04T16:45:53.484Z,101175.75
2022-11-04T16:48:20.977Z,101176.25
2022-11-04T16:50:48.839Z,101175.19
2022-11-04T16:53:15.259Z,101181.00
2022-11-04T16:55:44.289Z,101188.63
2022-11-04T16:58:17.109Z,101193.59
2022-11-04T17:00:43.559Z,101190.63
2022-11-04T17:03:23.180Z,101190.31
2022-11-04T17:05:56.363Z,101195.28
2022-11-04T17:08:26.486Z,101191.16
2022-11-04T17:10:52.966Z,101192.63
2022-11-04T17:13:19.393Z,101195.72
2022-11-04T17:15:46.175Z,101204.41
2022-11-04T17:18:17.634Z,101206.75
2022-11-04T17:20:55.458Z,101210.22
2022-11-04T17:23:21.913Z,101208.38
2022-11-04T17:25:49.067Z,101213.38
2022-11-04T17:28:15.475Z,101216.44
2022-11-04T17:30:43.609Z,101222.22
2022-11-04T17:33:14.727Z,101228.38
2022-11-04T17:35:43.664Z,101234.09
2022-11-04T17:38:12.112Z,101240.53
2022-11-04T17:40:59.159Z,101238.72
2022-11-04T17:43:44.569Z,101237.22
2022-11-04T17:46:31.408Z,101247.84
2022-11-04T17:48:58.206Z,101241.78
2022-11-04T17:51:24.670Z,101244.84
2022-11-04T17:53:51.103Z,101246.41
2022-11-04T17:56:22.133Z,101243.75
2022-11-04T17:58:49.541Z,101243.44
2022-11-04T18:01:18.314Z,101241.94
2022-11-04T18:03:44.809Z,101242.38
2022-11-04T18:06:11.211Z,101248.84
2022-11-04T18:08:38.373Z,101250.81
2022-11-04T18:11:07.736Z,101262.56
2022-11-04T18:13:35.573Z,101265.28
2022-11-04T18:16:12.931Z,101264.59
2022-11-04T18:18:40.076Z,101266.56
2022-11-04T18:21:08.602Z,101267.78
2022-11-04T18:23:35.045Z,101269.75
2022-11-04T18:26:02.864Z,101269.44
2022-11-04T18:28:29.341Z,101275.13
2022-11-04T18:30:55.741Z,101272.16
2022-11-04T18:33:22.160Z,101281.59
2022-11-04T18:35:48.583Z,101275.13
2022-11-04T18:38:15.070Z,101281.25
2022-11-04T18:40:41.435Z,101285.13
2022-11-04T18:43:09.293Z,101289.03
2022-11-04T18:45:36.577Z,101290.94
2022-11-04T18:48:05.587Z,101297.03
2022-11-04T18:50:31.973Z,101305.81
2022-11-04T18:52:58.354Z,101315.31
2022-11-04T18:55:24.868Z,101310.44
2022-11-04T18:57:55.420Z,101310.47
2022-11-04T19:00:22.482Z,101310.88
2022-11-04T19:02:49.022Z,101310.53
2022-11-04T19:05:15.894Z,101314.75
2022-11-04T19:07:42.346Z,101317.06
2022-11-04T19:10:09.694Z,101317.88
2022-11-04T19:12:54.645Z,101318.28
2022-11-04T19:15:21.051Z,101328.94
2022-11-04T19:17:47.549Z,101326.69
2022-11-04T19:20:13.954Z,101326.75
2022-11-04T19:22:40.975Z,101331.72
2022-11-04T19:25:08.484Z,101327.22
2022-11-04T19:27:35.139Z,101326.88
2022-11-04T19:30:01.931Z,101338.28
2022-11-04T19:32:28.354Z,101335.28
2022-11-04T19:34:54.795Z,101344.03
2022-11-04T19:37:21.193Z,101343.34
2022-11-04T19:39:47.560Z,101343.06
2022-11-04T19:42:34.080Z,101342.31
2022-11-04T19:45:00.548Z,101348.00
2022-11-04T19:47:27.015Z,101343.84
2022-11-04T19:49:53.531Z,101340.84
2022-11-04T19:52:20.334Z,101347.31
2022-11-04T19:54:46.842Z,101345.81
2022-11-04T19:57:13.368Z,101351.50
2022-11-04T19:59:39.753Z,101357.59
2022-11-04T20:02:06.522Z,101361.41
2022-11-04T20:04:33.021Z,101360.69
2022-11-04T20:06:59.402Z,101356.56
2022-11-04T20:09:25.985Z,101359.28
2022-11-04T20:12:10.735Z,101372.16
2022-11-04T20:14:37.154Z,101365.75
2022-11-04T20:17:05.795Z,101365.00
2022-11-04T20:19:32.252Z,101361.63
2022-11-04T20:21:58.674Z,101376.00
2022-11-04T20:24:25.197Z,101379.09
2022-11-04T20:26:51.625Z,101382.53
2022-11-04T20:29:18.065Z,101396.59
2022-11-04T20:31:44.934Z,101397.81
2022-11-04T20:34:13.103Z,101400.44
2022-11-04T20:36:40.250Z,101398.94
2022-11-04T20:39:10.028Z,101398.94
2022-11-04T20:41:36.478Z,101410.69
2022-11-04T20:44:02.923Z,101412.22
2022-11-04T20:46:30.799Z,101416.00
2022-11-04T20:48:58.342Z,101420.19
2022-11-04T20:51:30.298Z,101424.41
2022-11-04T20:54:00.372Z,101428.59
2022-11-04T20:56:34.837Z,101435.03
2022-11-04T20:59:01.987Z,101437.69
2022-11-04T21:01:31.315Z,101435.44
2022-11-04T21:04:03.719Z,101437.34
2022-11-04T21:06:31.049Z,101441.13
2022-11-04T21:08:58.926Z,101446.81
2022-11-04T21:11:31.698Z,101447.97
2022-11-04T21:13:59.027Z,101453.63
2022-11-04T21:16:25.568Z,101458.56
2022-11-04T21:18:51.948Z,101460.47
2022-11-04T21:21:18.352Z,101468.78
2022-11-04T21:23:46.543Z,101462.00
2022-11-04T21:26:21.697Z,101468.13
2022-11-04T21:28:56.486Z,101468.94
2022-11-04T21:31:24.413Z,101470.50
2022-11-04T21:33:51.779Z,101478.47
2022-11-04T21:36:19.628Z,101490.97
2022-11-04T21:38:46.758Z,101489.09
2022-11-04T21:41:15.873Z,101485.69
2022-11-04T21:43:42.670Z,101489.41
2022-11-04T21:46:14.602Z,101496.16
2022-11-04T21:48:42.740Z,101501.50
2022-11-04T21:51:18.562Z,101502.28
2022-11-04T21:53:45.353Z,101500.03
2022-11-04T21:56:15.531Z,101506.84
2022-11-04T21:58:43.298Z,101509.06
2022-11-04T22:01:12.253Z,101506.03
2022-11-04T22:03:38.731Z,101515.47
2022-11-04T22:06:08.458Z,101518.09
2022-11-04T22:08:36.136Z,101526.41
2022-11-04T22:11:08.442Z,101521.88
2022-11-04T22:13:35.346Z,101525.63
2022-11-04T22:16:03.168Z,101523.34
2022-11-04T22:18:31.927Z,101530.13
2022-11-04T22:21:03.743Z,101527.50
2022-11-04T22:23:30.177Z,101520.66
2022-11-04T22:26:03.949Z,101520.63
2022-11-04T22:28:30.725Z,101518.34
2022-11-04T22:30:57.599Z,101514.56
2022-11-04T22:33:27.459Z,101526.66
2022-11-04T22:35:57.829Z,101530.03
2022-11-04T22:38:24.258Z,101539.09
2022-11-04T22:40:56.054Z,101533.00
2022-11-04T22:43:24.695Z,101537.53
2022-11-04T22:45:52.222Z,101545.81
2022-11-04T22:48:18.788Z,101545.81
2022-11-04T22:50:46.440Z,101545.03
2022-11-04T22:53:13.896Z,101543.50
2022-11-04T22:55:40.295Z,101545.34
2022-11-04T22:58:06.695Z,101542.31
2022-11-04T23:00:33.096Z,101536.97
2022-11-04T23:02:59.709Z,101543.78
2022-11-04T23:05:28.066Z,101549.41
2022-11-04T23:07:55.722Z,101539.59
2022-11-04T23:10:40.854Z,101544.88
2022-11-04T23:13:28.211Z,101542.97
2022-11-04T23:16:13.654Z,101546.00
2022-11-04T23:18:42.707Z,101546.00
2022-11-04T23:21:30.839Z,101554.31
2022-11-04T23:24:15.630Z,101557.38
2022-11-04T23:26:42.477Z,101555.09
2022-11-04T23:29:27.439Z,101554.34
2022-11-04T23:31:53.853Z,101550.59
2022-11-04T23:34:38.638Z,101547.94
2022-11-04T23:37:14.337Z,101561.94
2022-11-04T23:39:43.155Z,101570.63
2022-11-04T23:42:18.307Z,101552.47
2022-11-04T23:45:13.578Z,101556.97
2022-11-04T23:48:00.103Z,101556.94
2022-11-04T23:50:47.394Z,101547.09
2022-11-04T23:53:34.726Z,101554.28
2022-11-04T23:56:20.133Z,101553.56
2022-11-04T23:59:05.400Z,101550.22
